createdAt,value
2022-08-07T00:00:30.742Z,99762.80
2022-08-07T00:03:09.446Z,99765.40
2022-08-07T00:05:38.131Z,99761.20
2022-08-07T00:08:07.847Z,99759.00
2022-08-07T00:10:47.753Z,99764.80
2022-08-07T00:13:26.971Z,99765.40
2022-08-07T00:15:55.625Z,99760.80
2022-08-07T00:18:27.541Z,99763.80
2022-08-07T00:21:01.713Z,99763.60
2022-08-07T00:23:33.728Z,99763.20
2022-08-07T00:26:13.301Z,99770.80
2022-08-07T00:28:55.751Z,99771.60
2022-08-07T00:31:37.891Z,99771.40
2022-08-07T00:34:09.744Z,99776.00
2022-08-07T00:36:43.185Z,99776.40
2022-08-07T00:39:16.501Z,99777.00
2022-08-07T00:41:53.685Z,99774.00
2022-08-07T00:44:29.607Z,99773.40
2022-08-07T00:46:57.248Z,99770.00
2022-08-07T00:50:19.992Z,99773.80
2022-08-07T00:52:14.918Z,99774.00
2022-08-07T00:54:53.947Z,99769.80
2022-08-07T00:57:25.147Z,99774.40
2022-08-07T00:59:54.700Z,99770.40
2022-08-07T01:02:28.884Z,99767.40
2022-08-07T01:05:00.041Z,99769.00
2022-08-07T01:07:29.469Z,99768.00
2022-08-07T01:10:05.060Z,99763.60
2022-08-07T01:12:37.994Z,99764.60
2022-08-07T01:15:07.457Z,99770.60
2022-08-07T01:17:40.066Z,99768.40
2022-08-07T01:20:16.633Z,99768.60
2022-08-07T01:22:46.662Z,99772.40
2022-08-07T01:25:54.027Z,99770.20
2022-08-07T01:28:11.285Z,99776.60
2022-08-07T01:30:40.869Z,99778.80
2022-08-07T01:33:13.568Z,99775.80
2022-08-07T01:35:54.558Z,99776.80
2022-08-07T01:38:31.817Z,99781.80
2022-08-07T01:41:02.731Z,99780.40
2022-08-07T01:43:34.809Z,99776.80
2022-08-07T01:46:08.078Z,99779.00
2022-08-07T01:48:40.978Z,99781.00
2022-08-07T01:52:02.570Z,99779.00
2022-08-07T01:54:08.790Z,99779.80
2022-08-07T01:56:53.421Z,99773.80
2022-08-07T01:59:54.619Z,99777.80
2022-08-07T02:03:18.504Z,99780.40
2022-08-07T02:05:59.964Z,99785.40
2022-08-07T02:08:33.664Z,99782.40
2022-08-07T02:11:05.395Z,99776.80
2022-08-07T02:14:02.341Z,99775.60
2022-08-07T02:16:29.958Z,99775.40
2022-08-07T02:20:04.874Z,99770.00
2022-08-07T02:21:59.662Z,99768.60
2022-08-07T02:24:30.150Z,99775.20
2022-08-07T02:27:02.913Z,99776.00
2022-08-07T02:29:34.449Z,99772.80
2022-08-07T02:32:12.941Z,99770.40
2022-08-07T02:34:51.060Z,99770.60
2022-08-07T02:37:20.805Z,99774.20
2022-08-07T02:40:11.746Z,99771.60
2022-08-07T02:42:40.841Z,99777.20
2022-08-07T02:45:59.324Z,99780.40
2022-08-07T02:48:05.312Z,99780.60
2022-08-07T02:50:43.309Z,99779.60
2022-08-07T02:53:17.944Z,99783.20
2022-08-07T02:56:02.650Z,99783.40
2022-08-07T02:58:36.605Z,99781.20
2022-08-07T03:01:18.570Z,99784.20
2022-08-07T03:03:50.232Z,99784.80
2022-08-07T03:06:25.553Z,99784.40
2022-08-07T03:08:55.108Z,99787.20
2022-08-07T03:11:25.586Z,99783.80
2022-08-07T03:13:57.392Z,99784.60
2022-08-07T03:16:27.862Z,99782.60
2022-08-07T03:18:56.546Z,99783.40
2022-08-07T03:21:25.955Z,99777.80
2022-08-07T03:24:20.754Z,99780.20
2022-08-07T03:26:58.374Z,99780.60
2022-08-07T03:29:38.087Z,99776.60
2022-08-07T03:32:13.054Z,99774.80
2022-08-07T03:34:47.171Z,99777.00
2022-08-07T03:37:37.401Z,99776.20
2022-08-07T03:40:16.657Z,99777.00
2022-08-07T03:42:45.433Z,99776.60
2022-08-07T03:45:30.153Z,99778.20
2022-08-07T03:48:00.144Z,99776.60
2022-08-07T03:50:29.221Z,99778.40
2022-08-07T03:53:01.407Z,99780.00
2022-08-07T03:55:53.160Z,99783.00
2022-08-07T03:59:05.400Z,99779.60
2022-08-07T04:01:11.663Z,99779.40
2022-08-07T04:03:49.985Z,99783.60
2022-08-07T04:06:36.100Z,99786.00
2022-08-07T04:09:15.030Z,99789.00
2022-08-07T04:12:25.275Z,99790.60
2022-08-07T04:14:37.534Z,99793.60
2022-08-07T04:17:29.373Z,99793.00
2022-08-07T04:19:55.398Z,99796.80
2022-08-07T04:22:29.283Z,99793.40
2022-08-07T04:25:00.962Z,99794.00
2022-08-07T04:27:35.704Z,99795.40
2022-08-07T04:30:10.236Z,99799.20
2022-08-07T04:32:44.844Z,99803.40
2022-08-07T04:35:15.857Z,99809.40
2022-08-07T04:38:03.193Z,99804.40
2022-08-07T04:40:32.745Z,99800.80
2022-08-07T04:43:03.700Z,99802.80
2022-08-07T04:46:01.147Z,99801.60
2022-08-07T04:48:50.975Z,99803.80
2022-08-07T04:51:35.669Z,99804.40
2022-08-07T04:54:22.630Z,99801.20
2022-08-07T04:58:14.296Z,99801.80
2022-08-07T05:00:29.985Z,99802.60
2022-08-07T05:04:12.483Z,99802.60
2022-08-07T05:07:20.729Z,99804.40
2022-08-07T05:10:04.761Z,99804.20
2022-08-07T05:12:52.909Z,99808.60
2022-08-07T05:15:32.185Z,99813.20
2022-08-07T05:18:14.777Z,99815.40
2022-08-07T05:20:54.918Z,99816.00
2022-08-07T05:23:51.895Z,99821.60
2022-08-07T05:26:23.921Z,99821.40
2022-08-07T05:28:56.010Z,99821.00
2022-08-07T05:31:35.144Z,99821.00
2022-08-07T05:34:11.932Z,99819.80
2022-08-07T05:36:53.197Z,99820.60
2022-08-07T05:40:13.804Z,99820.40
2022-08-07T05:42:14.630Z,99820.80
2022-08-07T05:45:14.148Z,99814.60
2022-08-07T05:48:01.937Z,99820.60
2022-08-07T05:50:34.268Z,99826.20
2022-08-07T05:53:02.852Z,99819.00
2022-08-07T05:56:03.815Z,99825.00
2022-08-07T05:58:36.542Z,99825.60
2022-08-07T06:01:10.466Z,99823.60
2022-08-07T06:03:53.366Z,99822.80
2022-08-07T06:06:32.300Z,99819.40
2022-08-07T06:09:04.633Z,99822.40
2022-08-07T06:11:36.036Z,99821.80
2022-08-07T06:14:12.652Z,99826.80
2022-08-07T06:16:50.254Z,99824.40
2022-08-07T06:19:51.816Z,99826.80
2022-08-07T06:22:14.338Z,99829.40
2022-08-07T06:24:56.914Z,99826.60
2022-08-07T06:28:00.750Z,99826.00
2022-08-07T06:30:35.146Z,99819.80
2022-08-07T06:33:03.534Z,99819.60
2022-08-07T06:35:45.745Z,99813.80
2022-08-07T06:38:20.115Z,99821.60
2022-08-07T06:40:54.259Z,99827.60
2022-08-07T06:43:26.757Z,99823.40
2022-08-07T06:45:59.902Z,99818.80
2022-08-07T06:48:28.764Z,99818.20
2022-08-07T06:51:08.134Z,99821.60
2022-08-07T06:55:30.264Z,99818.40
2022-08-07T06:56:49.610Z,99824.40
2022-08-07T07:00:12.604Z,99815.40
2022-08-07T07:02:48.524Z,99817.00
2022-08-07T07:05:12.745Z,99823.80
2022-08-07T07:08:00.195Z,99815.60
2022-08-07T07:10:35.993Z,99821.60
2022-08-07T07:13:55.788Z,99809.00
2022-08-07T07:16:23.802Z,99813.40
2022-08-07T07:19:11.427Z,99806.80
2022-08-07T07:22:11.501Z,99807.60
2022-08-07T07:24:58.377Z,99807.40
2022-08-07T07:27:55.531Z,99812.40
2022-08-07T07:30:39.856Z,99806.00
2022-08-07T07:33:13.989Z,99802.20
2022-08-07T07:36:05.718Z,99803.20
2022-08-07T07:38:36.098Z,99803.20
2022-08-07T07:41:09.186Z,99796.40
2022-08-07T07:44:13.748Z,99795.40
2022-08-07T07:46:36.587Z,99791.80
2022-08-07T07:50:33.878Z,99792.40
2022-08-07T07:52:17.005Z,99790.60
2022-08-07T07:54:50.724Z,99795.80
2022-08-07T07:57:51.882Z,99798.40
2022-08-07T08:00:20.835Z,99790.40
2022-08-07T08:03:08.242Z,99796.20
2022-08-07T08:05:50.532Z,99790.80
2022-08-07T08:08:35.185Z,99792.00
2022-08-07T08:11:16.236Z,99789.60
2022-08-07T08:13:53.782Z,99789.20
2022-08-07T08:16:32.504Z,99793.80
2022-08-07T08:19:09.734Z,99784.00
2022-08-07T08:22:16.831Z,99786.60
2022-08-07T08:25:25.087Z,99792.80
2022-08-07T08:28:03.727Z,99790.80
2022-08-07T08:30:42.721Z,99794.60
2022-08-07T08:33:21.999Z,99794.00
2022-08-07T08:35:55.819Z,99791.20
2022-08-07T08:38:42.355Z,99787.00
2022-08-07T08:41:58.409Z,99784.80
2022-08-07T08:44:45.681Z,99787.20
2022-08-07T08:47:47.375Z,99791.80
2022-08-07T08:50:45.382Z,99787.40
2022-08-07T08:53:32.460Z,99792.20
2022-08-07T08:56:10.498Z,99796.60
2022-08-07T08:59:06.379Z,99801.60
2022-08-07T09:02:09.232Z,99798.40
2022-08-07T09:04:47.186Z,99798.80
2022-08-07T09:07:25.411Z,99799.40
2022-08-07T09:10:11.521Z,99797.60
2022-08-07T09:13:19.016Z,99798.80
2022-08-07T09:16:24.812Z,99790.60
2022-08-07T09:19:51.242Z,99792.60
2022-08-07T09:24:33.365Z,99798.00
2022-08-07T09:26:24.404Z,99793.80
2022-08-07T09:30:01.487Z,99789.60
2022-08-07T09:32:17.282Z,99787.80
2022-08-07T09:36:03.282Z,99782.80
2022-08-07T09:38:58.790Z,99782.60
2022-08-07T09:41:59.078Z,99787.80
2022-08-07T09:47:37.326Z,99783.40
2022-08-07T09:50:02.808Z,99790.40
2022-08-07T09:52:10.321Z,99779.00
2022-08-07T09:54:50.736Z,99781.20
2022-08-07T09:57:50.984Z,99782.20
2022-08-07T10:00:24.323Z,99777.60
2022-08-07T10:04:05.810Z,99775.20
2022-08-07T10:06:54.064Z,99778.60
2022-08-07T10:10:21.856Z,99773.80
2022-08-07T10:13:29.828Z,99767.60
2022-08-07T10:16:37.756Z,99764.80
2022-08-07T10:19:26.866Z,99755.80
2022-08-07T10:22:53.638Z,99750.80
2022-08-07T10:25:53.104Z,99748.60
2022-08-07T10:28:49.497Z,99748.00
2022-08-07T10:31:49.747Z,99740.20
2022-08-07T10:34:47.433Z,99739.60
2022-08-07T10:38:00.162Z,99736.60
2022-08-07T10:40:31.981Z,99733.40
2022-08-07T10:44:07.298Z,99730.20
2022-08-07T10:47:15.316Z,99731.00
2022-08-07T10:50:15.223Z,99726.40
2022-08-07T10:53:05.205Z,99722.80
2022-08-07T10:56:02.289Z,99714.20
2022-08-07T10:58:46.153Z,99716.20
2022-08-07T11:01:51.989Z,99710.40
2022-08-07T11:04:57.593Z,99702.60
2022-08-07T11:08:00.858Z,99704.80
2022-08-07T11:10:45.963Z,99704.40
2022-08-07T11:14:44.972Z,99698.80
2022-08-07T11:16:40.995Z,99696.20
2022-08-07T11:19:51.788Z,99708.40
2022-08-07T11:22:43.894Z,99708.20
2022-08-07T11:25:50.138Z,99699.00
2022-08-07T11:28:34.049Z,99695.00
2022-08-07T11:31:18.354Z,99699.00
2022-08-07T11:34:06.392Z,99690.80
2022-08-07T11:37:03.415Z,99703.80
2022-08-07T11:40:03.716Z,99690.40
2022-08-07T11:43:15.369Z,99690.40
2022-08-07T11:46:36.774Z,99691.20
2022-08-07T11:50:30.289Z,99695.40
2022-08-07T11:53:16.787Z,99691.60
2022-08-07T11:56:26.769Z,99688.20
2022-08-07T12:00:11.912Z,99692.40
2022-08-07T12:03:04.759Z,99687.00
2022-08-07T12:06:37.140Z,99679.20
2022-08-07T12:09:38.066Z,99675.80
2022-08-07T12:12:12.593Z,99673.20
2022-08-07T12:14:56.260Z,99673.00
2022-08-07T12:17:40.006Z,99670.80
2022-08-07T12:20:52.037Z,99672.20
2022-08-07T12:24:06.403Z,99673.60
2022-08-07T12:27:13.277Z,99673.00
2022-08-07T12:30:05.274Z,99673.40
2022-08-07T12:33:00.512Z,99676.40
2022-08-07T12:35:36.123Z,99670.80
2022-08-07T12:38:09.118Z,99666.80
2022-08-07T12:40:47.236Z,99658.40
2022-08-07T12:44:01.800Z,99655.40
2022-08-07T12:46:26.647Z,99661.80
2022-08-07T12:49:51.060Z,99653.20
2022-08-07T12:52:35.019Z,99642.80
2022-08-07T12:55:16.485Z,99645.60
2022-08-07T12:58:00.505Z,99637.60
2022-08-07T13:01:18.384Z,99641.00
2022-08-07T13:04:03.196Z,99642.20
2022-08-07T13:08:13.586Z,99645.20
2022-08-07T13:10:44.772Z,99642.20
2022-08-07T13:13:48.097Z,99642.00
2022-08-07T13:16:46.701Z,99641.20
2022-08-07T13:19:50.500Z,99635.80
2022-08-07T13:22:31.988Z,99634.60
2022-08-07T13:25:29.629Z,99627.20
2022-08-07T13:28:14.389Z,99627.20
2022-08-07T13:31:12.935Z,99623.40
2022-08-07T13:34:32.936Z,99628.80
2022-08-07T13:37:42.923Z,99629.80
2022-08-07T13:40:43.186Z,99624.00
2022-08-07T13:43:16.161Z,99629.40
2022-08-07T13:46:10.457Z,99624.00
2022-08-07T13:48:39.346Z,99625.00
2022-08-07T13:51:28.401Z,99621.20
2022-08-07T13:54:07.391Z,99614.20
2022-08-07T13:56:41.374Z,99613.60
2022-08-07T13:59:25.608Z,99615.40
2022-08-07T14:02:32.146Z,99610.20
2022-08-07T14:05:20.104Z,99612.20
2022-08-07T14:08:00.028Z,99610.20
2022-08-07T14:10:42.155Z,99607.20
2022-08-07T14:13:20.970Z,99606.80
2022-08-07T14:16:15.364Z,99602.20
2022-08-07T14:18:57.124Z,99595.80
2022-08-07T14:22:01.876Z,99595.20
2022-08-07T14:24:33.264Z,99587.80
2022-08-07T14:28:10.272Z,99588.40
2022-08-07T14:30:07.162Z,99585.00
2022-08-07T14:32:45.765Z,99589.00
2022-08-07T14:35:43.335Z,99590.20
2022-08-07T14:38:26.741Z,99586.20
2022-08-07T14:41:05.168Z,99581.60
2022-08-07T14:43:59.029Z,99590.00
2022-08-07T14:46:32.538Z,99589.80
2022-08-07T14:49:57.629Z,99585.40
2022-08-07T14:52:03.799Z,99584.40
2022-08-07T14:54:43.313Z,99577.00
2022-08-07T14:57:19.286Z,99575.60
2022-08-07T15:00:04.528Z,99572.60
2022-08-07T15:02:39.187Z,99566.20
2022-08-07T15:05:19.849Z,99560.80
2022-08-07T15:07:51.114Z,99568.60
2022-08-07T15:10:58.649Z,99554.00
2022-08-07T15:13:37.009Z,99552.00
2022-08-07T15:19:00.683Z,99550.40
2022-08-07T15:21:58.856Z,99546.60
2022-08-07T15:27:29.829Z,99540.00
2022-08-07T15:30:14.628Z,99539.40
2022-08-07T15:36:01.209Z,99537.00
2022-08-07T15:44:23.524Z,99541.60
2022-08-07T15:47:03.291Z,99542.60
2022-08-07T15:52:31.379Z,99538.20
2022-08-07T15:55:08.941Z,99535.40
2022-08-07T15:57:48.882Z,99540.60
2022-08-07T16:00:31.045Z,99538.20
2022-08-07T16:03:22.121Z,99534.00
2022-08-07T16:06:03.263Z,99533.40
2022-08-07T16:08:38.901Z,99537.20
2022-08-07T16:11:28.651Z,99531.80
2022-08-07T16:14:59.169Z,99529.60
2022-08-07T16:18:05.957Z,99531.20
2022-08-07T16:22:01.304Z,99531.40
2022-08-07T16:24:03.185Z,99528.60
2022-08-07T16:27:23.622Z,99528.40
2022-08-07T16:30:30.376Z,99528.60
2022-08-07T16:34:06.907Z,99527.40
2022-08-07T16:36:20.683Z,99525.00
2022-08-07T16:39:40.178Z,99524.60
2022-08-07T16:42:45.312Z,99520.60
2022-08-07T16:46:11.043Z,99520.20
2022-08-07T16:50:27.195Z,99519.40
2022-08-07T16:52:51.669Z,99521.00
2022-08-07T16:55:53.536Z,99524.00
2022-08-07T16:59:11.364Z,99522.60
2022-08-07T17:01:56.662Z,99522.60
2022-08-07T17:04:50.911Z,99522.60
2022-08-07T17:07:55.175Z,99524.60
2022-08-07T17:10:54.940Z,99533.20
2022-08-07T17:14:19.670Z,99528.60
2022-08-07T17:16:57.877Z,99529.00
2022-08-07T17:20:01.852Z,99533.40
2022-08-07T17:22:42.437Z,99533.60
2022-08-07T17:25:18.314Z,99536.40
2022-08-07T17:28:00.600Z,99539.20
2022-08-07T17:30:58.117Z,99536.60
2022-08-07T17:34:09.179Z,99539.20
2022-08-07T17:36:28.464Z,99540.60
2022-08-07T17:39:26.229Z,99542.40
2022-08-07T17:42:35.541Z,99540.20
2022-08-07T17:45:18.305Z,99540.40
2022-08-07T17:48:15.684Z,99544.80
2022-08-07T17:51:49.577Z,99543.80
2022-08-07T17:54:40.089Z,99546.00
2022-08-07T17:57:56.029Z,99551.80
2022-08-07T18:00:33.343Z,99554.20
2022-08-07T18:04:03.680Z,99554.80
2022-08-07T18:06:38.405Z,99563.20
2022-08-07T18:09:09.658Z,99562.40
2022-08-07T18:12:28.189Z,99557.80
2022-08-07T18:15:22.630Z,99565.80
2022-08-07T18:18:45.476Z,99565.60
2022-08-07T18:21:38.140Z,99562.40
2022-08-07T18:24:08.982Z,99574.80
2022-08-07T18:27:06.452Z,99578.20
2022-08-07T18:30:05.337Z,99580.00
2022-08-07T18:33:11.925Z,99583.20
2022-08-07T18:36:01.476Z,99574.40
2022-08-07T18:40:08.480Z,99574.00
2022-08-07T18:42:21.516Z,99580.20
2022-08-07T18:45:43.956Z,99584.00
2022-08-07T18:48:10.096Z,99586.80
2022-08-07T18:52:34.836Z,99592.80
2022-08-07T18:54:33.145Z,99589.20
2022-08-07T18:57:37.039Z,99594.60
2022-08-07T19:00:32.093Z,99599.20
2022-08-07T19:03:38.072Z,99605.00
2022-08-07T19:06:17.670Z,99605.00
2022-08-07T19:08:54.046Z,99605.80
2022-08-07T19:12:04.592Z,99608.40
2022-08-07T19:16:02.612Z,99602.00
2022-08-07T19:18:34.100Z,99601.80
2022-08-07T19:21:47.484Z,99603.20
2022-08-07T19:24:50.259Z,99608.00
2022-08-07T19:28:57.230Z,99611.60
2022-08-07T19:30:57.239Z,99615.20
2022-08-07T19:33:08.391Z,99614.80
2022-08-07T19:35:51.458Z,99613.80
2022-08-07T19:38:20.581Z,99614.20
2022-08-07T19:40:51.858Z,99611.80
2022-08-07T19:43:50.305Z,99615.60
2022-08-07T19:46:32.692Z,99619.40
2022-08-07T19:49:08.914Z,99620.80
2022-08-07T19:51:52.567Z,99630.60
2022-08-07T19:54:32.370Z,99630.80
2022-08-07T19:58:01.821Z,99630.80
2022-08-07T20:00:08.979Z,99628.80
2022-08-07T20:02:53.634Z,99629.20
2022-08-07T20:05:30.701Z,99626.60
2022-08-07T20:08:25.240Z,99624.40
2022-08-07T20:11:01.937Z,99626.40
2022-08-07T20:13:55.921Z,99625.20
2022-08-07T20:16:36.188Z,99624.00
2022-08-07T20:19:10.393Z,99621.60
2022-08-07T20:21:47.591Z,99625.20
2022-08-07T20:24:24.184Z,99627.80
2022-08-07T20:27:03.182Z,99632.40
2022-08-07T20:29:56.765Z,99634.20
2022-08-07T20:32:40.786Z,99633.80
2022-08-07T20:35:16.019Z,99637.40
2022-08-07T20:37:58.499Z,99633.60
2022-08-07T20:40:34.698Z,99631.80
2022-08-07T20:43:14.494Z,99632.60
2022-08-07T20:46:27.591Z,99636.00
2022-08-07T20:48:58.123Z,99633.20
2022-08-07T20:51:30.620Z,99630.00
2022-08-07T20:54:15.096Z,99635.60
2022-08-07T20:57:04.467Z,99634.20
2022-08-07T21:00:08.382Z,99635.40
2022-08-07T21:02:54.129Z,99635.40
2022-08-07T21:05:54.362Z,99643.20
2022-08-07T21:08:40.805Z,99644.60
2022-08-07T21:11:14.494Z,99645.40
2022-08-07T21:14:16.434Z,99643.40
2022-08-07T21:17:06.421Z,99643.20
2022-08-07T21:19:51.125Z,99644.80
2022-08-07T21:22:20.883Z,99646.20
2022-08-07T21:25:24.760Z,99642.20
2022-08-07T21:28:47.622Z,99640.60
2022-08-07T21:32:42.250Z,99648.00
2022-08-07T21:34:51.580Z,99649.40
2022-08-07T21:37:58.065Z,99652.60
2022-08-07T21:40:50.157Z,99658.40
2022-08-07T21:43:36.600Z,99657.20
2022-08-07T21:46:31.853Z,99656.20
2022-08-07T21:49:20.960Z,99656.40
2022-08-07T21:52:12.962Z,99651.80
2022-08-07T21:55:30.169Z,99649.60
2022-08-07T21:58:06.783Z,99648.40
2022-08-07T22:00:39.858Z,99650.80
2022-08-07T22:03:31.476Z,99646.60
2022-08-07T22:06:30.516Z,99649.40
2022-08-07T22:09:12.325Z,99651.60
2022-08-07T22:12:05.005Z,99655.40
2022-08-07T22:15:00.640Z,99655.00
2022-08-07T22:17:40.800Z,99653.40
2022-08-07T22:21:02.423Z,99658.40
2022-08-07T22:23:42.281Z,99660.40
2022-08-07T22:26:20.276Z,99663.20
2022-08-07T22:29:08.797Z,99662.40
2022-08-07T22:32:05.855Z,99659.40
2022-08-07T22:34:53.851Z,99661.00
2022-08-07T22:38:14.160Z,99664.00
2022-08-07T22:41:14.306Z,99661.40
2022-08-07T22:43:51.285Z,99665.20
2022-08-07T22:47:06.063Z,99665.80
2022-08-07T22:50:36.289Z,99664.40
2022-08-07T22:54:07.476Z,99663.20
2022-08-07T22:57:07.429Z,99662.80
2022-08-07T22:59:57.528Z,99659.20
2022-08-07T23:03:13.112Z,99659.80
2022-08-07T23:06:08.220Z,99659.40
2022-08-07T23:10:01.209Z,99656.80
2022-08-07T23:12:42.638Z,99653.60
2022-08-07T23:16:05.670Z,99649.60
2022-08-07T23:18:34.695Z,99649.80
2022-08-07T23:21:36.626Z,99644.80
2022-08-07T23:24:32.700Z,99645.20
2022-08-07T23:28:20.152Z,99639.40
2022-08-07T23:31:06.719Z,99639.60
2022-08-07T23:34:36.418Z,99639.40
2022-08-07T23:38:01.843Z,99640.60
2022-08-07T23:40:53.275Z,99634.20
2022-08-07T23:43:55.626Z,99644.20
2022-08-07T23:47:02.820Z,99638.20
2022-08-07T23:50:16.162Z,99638.60
2022-08-07T23:52:58.713Z,99630.80
2022-08-07T23:55:52.122Z,99626.80
2022-08-07T23:58:55.161Z,99627.20
